Time;durP1;ratioP1;P1;durP2;ratioP2;P2;SDS_P1;SDS_P2;PMS_P1;PMS_P2;Temp;Humidity;BMP_temperature;BMP_pressure;BME280_temperature;BME280_humidity;BME280_pressure;Samples;Min_cycle;Max_cycle;Signal;HPM_P1;HPM_P2
2022/07/13 00:04:13;;;;;;;;;;;;;;;22.5;50.77344;102102.3;;;;-85
2022/07/13 00:08:10;;;;;;;4.7;3.1;;;;;;;;;;;;;-83
2022/07/13 00:09:08;;;;;;;;;;;;;;;22.48;50.8623;102085.8;;;;-83
2022/07/13 00:19:07;;;;;;;;;;;;;;;22.44;50.75488;102074.8;;;;-84
2022/07/13 00:24:14;;;;;;;;;;;;;;;22.42;50.79785;102070.8;;;;-84
2022/07/13 00:29:06;;;;;;;;;;;;;;;22.4;50.70508;102069.4;;;;-84
2022/07/13 00:34:08;;;;;;;;;;;;;;;22.38;50.70313;102056.1;;;;-83
2022/07/13 00:38:11;;;;;;;5.1;3.2;;;;;;;;;;;;;-84
2022/07/13 00:39:06;;;;;;;;;;;;;;;22.37;50.71289;102066.6;;;;-84
2022/07/13 00:44:15;;;;;;;;;;;;;;;22.35;50.98535;102077.5;;;;-85
2022/07/13 00:49:07;;;;;;;;;;;;;;;22.33;50.69824;102065.9;;;;-84
2022/07/13 00:54:14;;;;;;;;;;;;;;;22.32;50.99414;102063.7;;;;-83
2022/07/13 00:59:08;;;;;;;;;;;;;;;22.31;50.94629;102062.1;;;;-85
2022/07/13 01:04:08;;;;;;;;;;;;;;;22.29;50.8877;102051.1;;;;-85
2022/07/13 01:08:11;;;;;;;5.7;3.1;;;;;;;;;;;;;-84
2022/07/13 01:09:06;;;;;;;;;;;;;;;22.27;51.37793;102046.7;;;;-84
2022/07/13 01:14:08;;;;;;;;;;;;;;;22.26;51.21582;102039.7;;;;-83
2022/07/13 01:19:09;;;;;;;;;;;;;;;22.24;51.13379;102027.8;;;;-84
2022/07/13 01:24:09;;;;;;;;;;;;;;;22.23;51.37207;102026.4;;;;-83
2022/07/13 01:29:05;;;;;;;;;;;;;;;22.21;51.21094;102018.6;;;;-85
2022/07/13 01:34:06;;;;;;;;;;;;;;;22.21;51.19922;102019.8;;;;-86
2022/07/13 01:38:15;;;;;;;6.9;3.3;;;;;;;;;;;;;-86
2022/07/13 01:39:10;;;;;;;;;;;;;;;22.2;51.11816;102025.8;;;;-86
2022/07/13 01:44:11;;;;;;;;;;;;;;;22.2;51.00293;102025.4;;;;-84
2022/07/13 01:49:12;;;;;;;;;;;;;;;22.19;50.94531;102022.3;;;;-84
2022/07/13 01:54:11;;;;;;;;;;;;;;;22.18;51.10352;102013.6;;;;-84
2022/07/13 01:59:11;;;;;;;;;;;;;;;22.15;50.86035;102015.6;;;;-84
2022/07/13 02:04:11;;;;;;;;;;;;;;;22.14;50.80176;102016;;;;-84
2022/07/13 02:08:23;;;;;;;3.8;3;;;;;;;;;;;;;-83
2022/07/13 02:09:09;;;;;;;;;;;;;;;22.11;50.5918;102010.2;;;;-84
2022/07/13 02:14:06;;;;;;;;;;;;;;;22.09;50.68164;102000.3;;;;-84
2022/07/13 02:19:26;;;;;;;;;;;;;;;22.06;50.82715;102001.6;;;;-85
2022/07/13 02:24:14;;;;;;;;;;;;;;;22.04;51.05371;102000.8;;;;-86
2022/07/13 02:29:15;;;;;;;;;;;;;;;21.99;51.23145;101989.7;;;;-86
2022/07/13 02:34:06;;;;;;;;;;;;;;;21.96;51.12402;101998.9;;;;-88
2022/07/13 02:38:29;;;;;;;6.1;3.4;;;;;;;;;;;;;-84
2022/07/13 02:39:13;;;;;;;;;;;;;;;21.93;51.43066;101988.8;;;;-85
2022/07/13 02:44:14;;;;;;;;;;;;;;;21.9;51.62207;101998.6;;;;-85
2022/07/13 02:49:18;;;;;;;;;;;;;;;21.86;51.73242;101996.6;;;;-86
2022/07/13 02:54:15;;;;;;;;;;;;;;;21.84;51.80957;101986.6;;;;-83
2022/07/13 02:59:09;;;;;;;;;;;;;;;21.82;52.42578;101988.9;;;;-84
2022/07/13 03:04:05;;;;;;;;;;;;;;;21.8;52.36523;101981.7;;;;-85
2022/07/13 03:08:27;;;;;;;4.6;3.3;;;;;;;;;;;;;-86
2022/07/13 03:09:09;;;;;;;;;;;;;;;21.78;52.07617;101981.2;;;;-87
2022/07/13 03:14:14;;;;;;;;;;;;;;;21.75;52.2793;101981.8;;;;-86
2022/07/13 03:19:07;;;;;;;;;;;;;;;21.73;52.70117;101971.8;;;;-85
2022/07/13 03:24:18;;;;;;;;;;;;;;;21.69;52.75391;101975.6;;;;-85
2022/07/13 03:29:25;;;;;;;;;;;;;;;21.67;52.7959;101973.9;;;;-84
2022/07/13 03:34:18;;;;;;;;;;;;;;;21.66;52.81836;101975.9;;;;-86
2022/07/13 03:38:28;;;;;;;10.6;3.6;;;;;;;;;;;;;-86
2022/07/13 03:39:10;;;;;;;;;;;;;;;21.63;52.60938;101971.4;;;;-86
2022/07/13 03:44:13;;;;;;;;;;;;;;;21.61;52.80273;101967.3;;;;-85
2022/07/13 03:49:14;;;;;;;;;;;;;;;21.6;52.21582;101965.3;;;;-86
2022/07/13 03:54:13;;;;;;;;;;;;;;;21.56;52.34863;101960.9;;;;-84
2022/07/13 03:59:15;;;;;;;;;;;;;;;21.54;52.3125;101962.5;;;;-86
2022/07/13 04:04:27;;;;;;;;;;;;;;;21.52;52.28711;101963.3;;;;-87
2022/07/13 04:08:42;;;;;;;5.1;3.7;;;;;;;;;;;;;-87
2022/07/13 04:09:05;;;;;;;;;;;;;;;21.51;52.27441;101960.5;;;;-84
2022/07/13 04:14:20;;;;;;;;;;;;;;;21.5;52.66211;101958.9;;;;-85
2022/07/13 04:19:10;;;;;;;;;;;;;;;21.49;52.34082;101955.3;;;;-85
2022/07/13 04:24:09;;;;;;;;;;;;;;;21.47;52.33887;101953.8;;;;-86
2022/07/13 04:29:11;;;;;;;;;;;;;;;21.48;52.48828;101943.1;;;;-86
2022/07/13 04:34:08;;;;;;;;;;;;;;;21.5;52.4668;101945.1;;;;-84
2022/07/13 04:38:48;;;;;;;5.9;4.1;;;;;;;;;;;;;-86
2022/07/13 04:39:17;;;;;;;;;;;;;;;21.49;52.41016;101942.8;;;;-87
2022/07/13 04:44:16;;;;;;;;;;;;;;;21.51;52.61719;101941.8;;;;-87
2022/07/13 04:49:22;;;;;;;;;;;;;;;21.52;52.57324;101941.8;;;;-87
2022/07/13 04:54:10;;;;;;;;;;;;;;;21.54;52.39355;101934.9;;;;-85
2022/07/13 04:59:12;;;;;;;;;;;;;;;21.56;52.64648;101928.1;;;;-84
2022/07/13 05:04:13;;;;;;;;;;;;;;;21.61;52.53711;101931.7;;;;-84
2022/07/13 05:08:40;;;;;;;5.4;3.5;;;;;;;;;;;;;-86
2022/07/13 05:09:18;;;;;;;;;;;;;;;;;;;;;
2022/07/13 05:14:18;;;;;;;;;;;;;;;21.74;52.42773;101935.7;;;;-85
2022/07/13 05:19:19;;;;;;;;;;;;;;;21.82;52.21973;101935.9;;;;-85
2022/07/13 05:24:12;;;;;;;;;;;;;;;21.88;52.18066;101941.6;;;;-86
2022/07/13 05:29:06;;;;;;;;;;;;;;;21.94;52.17578;101945.7;;;;-86
2022/07/13 05:34:14;;;;;;;;;;;;;;;21.98;52.28418;101939.7;;;;-87
2022/07/13 05:38:45;;;;;;;5.8;3.1;;;;;;;;;;;;;-86
2022/07/13 05:39:09;;;;;;;;;;;;;;;22.05;52.16602;101947.9;;;;-86
2022/07/13 05:44:09;;;;;;;;;;;;;;;22.13;52.4502;101950.5;;;;-86
2022/07/13 05:49:16;;;;;;;;;;;;;;;22.22;52.51758;101950;;;;-85
2022/07/13 05:54:10;;;;;;;;;;;;;;;22.32;52.59766;101958.6;;;;-86
2022/07/13 06:04:20;;;;;;;;;;;;;;;22.54;52.31445;101957.1;;;;-87
2022/07/13 06:08:49;;;;;;;5;2.9;;;;;;;;;;;;;-85
2022/07/13 06:09:19;;;;;;;;;;;;;;;22.6;52.32227;101946.5;;;;-86
2022/07/13 06:14:07;;;;;;;;;;;;;;;22.82;52.42676;101956.2;;;;-84
2022/07/13 06:19:24;;;;;;;;;;;;;;;22.95;52.61523;101958.1;;;;-84
2022/07/13 06:24:15;;;;;;;;;;;;;;;23.12;52.9668;101954.9;;;;-86
2022/07/13 06:29:08;;;;;;;;;;;;;;;23.66;51.75586;101950.2;;;;-86
2022/07/13 06:34:11;;;;;;;;;;;;;;;24.42;50.54199;101947.3;;;;-87
2022/07/13 06:38:55;;;;;;;6.3;3.1;;;;;;;;;;;;;-86
2022/07/13 06:39:29;;;;;;;;;;;;;;;25.17;49.06836;101952.7;;;;-85
2022/07/13 06:44:13;;;;;;;;;;;;;;;25.75;48.10254;101948;;;;-87
2022/07/13 06:49:17;;;;;;;;;;;;;;;26.38;47.03516;101950.3;;;;-86
2022/07/13 06:54:14;;;;;;;;;;;;;;;26.92;46.05957;101950.1;;;;-86
2022/07/13 06:59:13;;;;;;;;;;;;;;;27.48;45.2207;101945.6;;;;-87
2022/07/13 07:04:09;;;;;;;;;;;;;;;27.97;44.61914;101947;;;;-87
2022/07/13 07:08:49;;;;;;;4.6;2.7;;;;;;;;;;;;;-86
2022/07/13 07:09:15;;;;;;;;;;;;;;;28.37;44.29785;101950.9;;;;-88
2022/07/13 07:14:19;;;;;;;;;;;;;;;28.79;44.02441;101957.4;;;;-86
2022/07/13 07:19:14;;;;;;;;;;;;;;;29.22;43.4707;101961.7;;;;-85
2022/07/13 07:24:21;;;;;;;;;;;;;;;29.54;43.03418;101963.1;;;;-85
2022/07/13 07:29:12;;;;;;;;;;;;;;;29.86;42.66699;101959.8;;;;-83
2022/07/13 07:34:11;;;;;;;;;;;;;;;30.16;42.13379;101957.2;;;;-85
2022/07/13 07:39:06;;;;;;;5.2;2.5;;;;;;;;;;;;;-85
2022/07/13 07:39:26;;;;;;;;;;;;;;;30.4;41.76953;101936.6;;;;-85
2022/07/13 07:59:04;;;;;;;;;;;;;;;31.52;40.31152;101944.3;;;;-78
2022/07/13 08:04:04;;;;;;;;;;;;;;;31.78;40.22852;101942.2;;;;-78
2022/07/13 08:08:55;;;;;;;3.9;2.5;;;;;;;;;;;;;-78
2022/07/13 08:09:05;;;;;;;;;;;;;;;32.02;39.88477;101936;;;;-77
2022/07/13 08:14:04;;;;;;;;;;;;;;;32.22;39.49219;101938.3;;;;-77
2022/07/13 08:19:04;;;;;;;;;;;;;;;32.41;39.37793;101943.5;;;;-79
2022/07/13 08:24:04;;;;;;;;;;;;;;;32.63;39.00977;101947.6;;;;-79
2022/07/13 08:29:05;;;;;;;;;;;;;;;32.86;38.56836;101947.3;;;;-72
2022/07/13 08:39:01;;;;;;;4.5;2.3;;;;;;;;;;;;;-73
2022/07/13 08:39:11;;;;;;;;;;;;;;;33.23;38.12891;101941.4;;;;-75
2022/07/13 08:44:04;;;;;;;;;;;;;;;33.53;37.91797;101932.3;;;;-74
2022/07/13 08:49:05;;;;;;;;;;;;;;;33.79;37.5498;101936.8;;;;-72
2022/07/13 08:54:05;;;;;;;;;;;;;;;34.03;37.14355;101939.8;;;;-72
2022/07/13 08:59:05;;;;;;;;;;;;;;;34.34;36.79102;101952.8;;;;-73
2022/07/13 09:04:04;;;;;;;;;;;;;;;34.68;36.60449;101955.5;;;;-73
2022/07/13 09:09:04;;;;;;;;;;;;;;;34.95;36.15234;101960.2;;;;-72
2022/07/13 09:09:23;;;;;;;5.7;2.1;;;;;;;;;;;;;-72
2022/07/13 09:14:04;;;;;;;;;;;;;;;35.12;35.63281;101965.7;;;;-72
2022/07/13 09:19:08;;;;;;;;;;;;;;;35.26;35.3125;101968.9;;;;-72
2022/07/13 09:24:05;;;;;;;;;;;;;;;35.38;35.13184;101971;;;;-75
2022/07/13 09:29:05;;;;;;;;;;;;;;;35.52;34.85742;101967.2;;;;-73
2022/07/13 09:34:05;;;;;;;;;;;;;;;35.7;34.6582;101976.2;;;;-73
2022/07/13 09:39:11;;;;;;;;;;;;;;;35.85;34.4668;101975.1;;;;-73
2022/07/13 09:39:21;;;;;;;4.7;1.9;;;;;;;;;;;;;-73
2022/07/13 09:49:04;;;;;;;;;;;;;;;36.14;34.28809;101977.6;;;;-73
2022/07/13 09:54:05;;;;;;;;;;;;;;;36.37;34.17285;101981;;;;-73
2022/07/13 09:59:05;;;;;;;;;;;;;;;36.59;33.86816;101996.3;;;;-79
2022/07/13 10:04:05;;;;;;;;;;;;;;;36.74;33.77246;101995.4;;;;-79
2022/07/13 10:09:04;;;;;;;;;;;;;;;36.86;33.62695;101987.2;;;;-80
2022/07/13 10:09:18;;;;;;;4.1;1.9;;;;;;;;;;;;;-79
2022/07/13 10:14:04;;;;;;;;;;;;;;;37.06;33.37891;102008.9;;;;-74
2022/07/13 10:19:10;;;;;;;;;;;;;;;37.17;33.30371;102021.3;;;;-73
2022/07/13 10:24:04;;;;;;;;;;;;;;;37.26;32.72754;102028.9;;;;-72
2022/07/13 10:29:12;;;;;;;;;;;;;;;37.28;32.51367;102028.6;;;;-73
2022/07/13 10:34:04;;;;;;;;;;;;;;;37.35;32.42383;102030.3;;;;-72
2022/07/13 10:39:18;;;;;;;;;;;;;;;37.47;32.16992;102044.2;;;;-75
2022/07/13 10:39:28;;;;;;;4.1;1.8;;;;;;;;;;;;;-75
2022/07/13 10:44:19;;;;;;;;;;;;;;;37.55;32.03223;102050.7;;;;-74
2022/07/13 10:49:04;;;;;;;;;;;;;;;37.63;31.56055;102047.2;;;;-80
2022/07/13 10:54:22;;;;;;;;;;;;;;;37.67;31.46777;102049.5;;;;-79
2022/07/13 10:59:06;;;;;;;;;;;;;;;37.72;31.5791;102050.6;;;;-79
2022/07/13 11:04:04;;;;;;;;;;;;;;;37.82;31.93066;102054.6;;;;-79
2022/07/13 11:09:22;;;;;;;;;;;;;;;37.96;31.80957;102061.5;;;;-79
2022/07/13 11:09:44;;;;;;;2.5;1.5;;;;;;;;;;;;;-79
2022/07/13 11:14:04;;;;;;;;;;;;;;;38.05;31.23145;102061.1;;;;-78
2022/07/13 11:19:04;;;;;;;;;;;;;;;38.09;30.74414;102057.6;;;;-79
2022/07/13 11:29:11;;;;;;;;;;;;;;;38.2;30.90625;102060.3;;;;-79
2022/07/13 11:34:05;;;;;;;;;;;;;;;38.31;30.30469;102062.9;;;;-78
2022/07/13 11:39:07;;;;;;;;;;;;;;;38.45;30.01563;102057.7;;;;-78
2022/07/13 11:39:37;;;;;;;3.7;1.5;;;;;;;;;;;;;-79
2022/07/13 11:44:04;;;;;;;;;;;;;;;38.52;30.56934;102058.3;;;;-80
2022/07/13 11:49:09;;;;;;;;;;;;;;;38.58;30.16699;102066.5;;;;-77
2022/07/13 11:54:09;;;;;;;;;;;;;;;38.65;30.85352;102075.4;;;;-80
2022/07/13 11:59:04;;;;;;;;;;;;;;;38.74;29.31641;102077.5;;;;-79
2022/07/13 12:04:05;;;;;;;;;;;;;;;38.89;29.19434;102086.4;;;;-79
2022/07/13 12:09:04;;;;;;;;;;;;;;;39.1;28.50098;102094.4;;;;-78
2022/07/13 12:09:49;;;;;;;2.9;1.4;;;;;;;;;;;;;-80
2022/07/13 12:14:04;;;;;;;;;;;;;;;39.24;28.2334;102094.8;;;;-78
2022/07/13 12:19:08;;;;;;;;;;;;;;;39.23;27.89746;102098.2;;;;-78
2022/07/13 12:24:04;;;;;;;;;;;;;;;39.01;27.87207;102101.1;;;;-77
2022/07/13 12:29:04;;;;;;;;;;;;;;;38.78;27.75098;102098.3;;;;-78
2022/07/13 12:34:06;;;;;;;;;;;;;;;38.59;27.87109;102113.9;;;;-80
2022/07/13 12:39:07;;;;;;;;;;;;;;;38.41;27.49023;102114.8;;;;-78
2022/07/13 12:39:49;;;;;;;5.5;1.8;;;;;;;;;;;;;-78
2022/07/13 12:44:05;;;;;;;;;;;;;;;38.14;28.16699;102120.9;;;;-79
2022/07/13 12:49:08;;;;;;;;;;;;;;;37.87;28.44922;102125.1;;;;-77
2022/07/13 12:54:07;;;;;;;;;;;;;;;37.62;28.63574;102126.6;;;;-80
2022/07/13 12:59:11;;;;;;;;;;;;;;;37.52;28.41504;102124.1;;;;-79
2022/07/13 13:04:05;;;;;;;;;;;;;;;37.61;28.49316;102123;;;;-77
2022/07/13 13:09:09;;;;;;;;;;;;;;;37.77;28.51465;102123.7;;;;-78
2022/07/13 13:09:56;;;;;;;2.6;1.4;;;;;;;;;;;;;-77
2022/07/13 13:14:04;;;;;;;;;;;;;;;37.84;28.43555;102126;;;;-78
2022/07/13 13:19:05;;;;;;;;;;;;;;;37.74;27.92773;102122.9;;;;-80
2022/07/13 13:24:06;;;;;;;;;;;;;;;37.63;27.99219;102123.2;;;;-80
2022/07/13 13:34:04;;;;;;;;;;;;;;;37.42;28.50488;102127.4;;;;-77
2022/07/13 13:39:04;;;;;;;;;;;;;;;37.4;28.00293;102128.8;;;;-79
2022/07/13 13:40:02;;;;;;;3.3;1.4;;;;;;;;;;;;;-79
2022/07/13 13:44:04;;;;;;;;;;;;;;;37.47;28.37598;102128.8;;;;-80
2022/07/13 13:49:05;;;;;;;;;;;;;;;37.51;28.27148;102130.1;;;;-78
2022/07/13 13:54:04;;;;;;;;;;;;;;;37.46;28.49512;102129.5;;;;-79
2022/07/13 13:59:04;;;;;;;;;;;;;;;37.42;28.64844;102126.3;;;;-79
2022/07/13 14:04:04;;;;;;;;;;;;;;;37.41;28.61133;102129.6;;;;-78
2022/07/13 14:09:04;;;;;;;;;;;;;;;37.34;29.00098;102138.4;;;;-78
2022/07/13 14:10:09;;;;;;;4.3;1.7;;;;;;;;;;;;;-75
2022/07/13 14:14:04;;;;;;;;;;;;;;;37.32;29.22656;102146.4;;;;-73
2022/07/13 14:19:04;;;;;;;;;;;;;;;37.31;29.10645;102148.7;;;;-79
2022/07/13 14:24:04;;;;;;;;;;;;;;;37.22;28.54004;102152.4;;;;-77
2022/07/13 14:29:04;;;;;;;;;;;;;;;37.14;28.78516;102155.4;;;;-77
2022/07/13 14:34:04;;;;;;;;;;;;;;;37.05;28.82715;102158.1;;;;-79
2022/07/13 14:39:04;;;;;;;;;;;;;;;36.92;29.28418;102158.6;;;;-80
2022/07/13 14:40:16;;;;;;;7.9;1.7;;;;;;;;;;;;;-78
2022/07/13 14:44:04;;;;;;;;;;;;;;;36.79;29.09766;102167;;;;-80
2022/07/13 14:49:04;;;;;;;;;;;;;;;36.48;29.07813;102168.7;;;;-78
2022/07/13 14:54:04;;;;;;;;;;;;;;;36.27;29.61133;102181.4;;;;-80
2022/07/13 14:59:05;;;;;;;;;;;;;;;36.02;29.63184;102192.4;;;;-80
2022/07/13 15:04:04;;;;;;;;;;;;;;;35.69;29.77637;102198.6;;;;-78
2022/07/13 15:09:04;;;;;;;;;;;;;;;35.46;30.34375;102198.5;;;;-74
2022/07/13 15:10:21;;;;;;;5.5;1.7;;;;;;;;;;;;;-74
2022/07/13 15:14:05;;;;;;;;;;;;;;;35.23;30.48242;102204.9;;;;-79
2022/07/13 15:19:04;;;;;;;;;;;;;;;34.93;30.89063;102206.2;;;;-78
2022/07/13 15:24:04;;;;;;;;;;;;;;;34.72;30.81641;102204.9;;;;-79
2022/07/13 15:29:04;;;;;;;;;;;;;;;34.58;31.24512;102206.3;;;;-79
2022/07/13 15:34:05;;;;;;;;;;;;;;;34.39;31.10254;102210.8;;;;-79
2022/07/13 15:39:04;;;;;;;;;;;;;;;34.13;31.65234;102208.2;;;;-82
2022/07/13 15:41:22;;;;;;;6.7;1.7;;;;;;;;;;;;;-80
2022/07/13 15:44:05;;;;;;;;;;;;;;;33.95;31.72363;102200.8;;;;-79
2022/07/13 15:49:07;;;;;;;;;;;;;;;33.81;31.96094;102210.3;;;;-81
2022/07/13 15:54:08;;;;;;;;;;;;;;;33.65;31.83301;102210.9;;;;-80
2022/07/13 15:59:04;;;;;;;;;;;;;;;33.45;32.19629;102208.4;;;;-80
2022/07/13 16:04:04;;;;;;;;;;;;;;;33.23;32.37012;102216.8;;;;-80
2022/07/13 16:09:04;;;;;;;;;;;;;;;33.04;32.42676;102216.5;;;;-77
2022/07/13 16:10:33;;;;;;;4.4;1.3;;;;;;;;;;;;;-78
2022/07/13 16:14:04;;;;;;;;;;;;;;;32.82;32.49512;102212.3;;;;-79
2022/07/13 16:19:04;;;;;;;;;;;;;;;32.61;32.57324;102217.5;;;;-79
2022/07/13 16:24:04;;;;;;;;;;;;;;;32.42;32.46582;102216.9;;;;-73
2022/07/13 16:29:04;;;;;;;;;;;;;;;32.3;32.62207;102212.3;;;;-74
2022/07/13 16:34:04;;;;;;;;;;;;;;;32.19;32.79102;102210.5;;;;-73
2022/07/13 16:39:05;;;;;;;;;;;;;;;32.13;32.79883;102202.9;;;;-74
2022/07/13 16:40:37;;;;;;;5.3;1.2;;;;;;;;;;;;;-75
2022/07/13 16:44:04;;;;;;;;;;;;;;;31.99;32.87109;102208.6;;;;-73
2022/07/13 16:49:04;;;;;;;;;;;;;;;31.76;32.77246;102219.3;;;;-78
2022/07/13 16:54:04;;;;;;;;;;;;;;;31.48;32.70605;102217.3;;;;-80
2022/07/13 16:59:04;;;;;;;;;;;;;;;31.29;33.29102;102216.8;;;;-80
2022/07/13 17:04:05;;;;;;;;;;;;;;;31.05;33.13281;102221.5;;;;-80
2022/07/13 17:09:04;;;;;;;;;;;;;;;30.86;33.50586;102234.8;;;;-75
2022/07/13 17:10:42;;;;;;;5.9;1.1;;;;;;;;;;;;;-75
2022/07/13 17:14:04;;;;;;;;;;;;;;;30.6;33.45215;102225.1;;;;-75
2022/07/13 17:19:09;;;;;;;;;;;;;;;30.36;33.68066;102230.2;;;;-76
2022/07/13 17:24:04;;;;;;;;;;;;;;;30.07;33.97559;102229.6;;;;-74
2022/07/13 17:29:04;;;;;;;;;;;;;;;29.81;34.26074;102238.9;;;;-74
2022/07/13 17:34:05;;;;;;;;;;;;;;;29.54;34.48633;102241.3;;;;-74
2022/07/13 17:39:04;;;;;;;;;;;;;;;29.27;34.93359;102233.5;;;;-75
2022/07/13 17:40:54;;;;;;;4.6;1.2;;;;;;;;;;;;;-81
2022/07/13 17:44:05;;;;;;;;;;;;;;;27.92;36.03125;102235.3;;;;-79
2022/07/13 17:49:05;;;;;;;;;;;;;;;26.75;38.16992;102243.6;;;;-76
2022/07/13 17:54:04;;;;;;;;;;;;;;;26.03;39.83789;102245.3;;;;-79
2022/07/13 17:59:04;;;;;;;;;;;;;;;25.52;40.84668;102238.4;;;;-80
2022/07/13 18:04:04;;;;;;;;;;;;;;;25.24;41.17969;102243.2;;;;-76
2022/07/13 18:09:04;;;;;;;;;;;;;;;24.82;41.94043;102238;;;;-76
2022/07/13 18:10:50;;;;;;;6.8;1.2;;;;;;;;;;;;;-77
2022/07/13 18:14:04;;;;;;;;;;;;;;;24.51;42.97266;102238.7;;;;-76
2022/07/13 18:19:04;;;;;;;;;;;;;;;24.33;43.00293;102231.7;;;;-77
2022/07/13 18:24:05;;;;;;;;;;;;;;;24.09;43.61328;102237.8;;;;-76
2022/07/13 18:29:04;;;;;;;;;;;;;;;23.98;43.85645;102239.3;;;;-76
2022/07/13 18:34:04;;;;;;;;;;;;;;;23.64;44.61816;102237.2;;;;-76
2022/07/13 18:39:04;;;;;;;;;;;;;;;23.46;45.17578;102237.1;;;;-76
2022/07/13 18:40:54;;;;;;;6.6;1.4;;;;;;;;;;;;;-76
2022/07/13 18:44:04;;;;;;;;;;;;;;;23.27;45.60547;102233.8;;;;-77
2022/07/13 18:49:07;;;;;;;;;;;;;;;23.11;45.96973;102231.5;;;;-76
2022/07/13 18:54:04;;;;;;;;;;;;;;;22.77;46.80762;102234.9;;;;-77
2022/07/13 18:59:04;;;;;;;;;;;;;;;22.67;46.95801;102232.4;;;;-78
2022/07/13 19:04:04;;;;;;;;;;;;;;;22.43;47.62207;102233.1;;;;-73
2022/07/13 19:09:05;;;;;;;;;;;;;;;22.27;48.46484;102229;;;;-76
2022/07/13 19:10:57;;;;;;;6.4;1.2;;;;;;;;;;;;;-76
2022/07/13 19:14:04;;;;;;;;;;;;;;;22.03;49.02441;102233.9;;;;-77
2022/07/13 19:19:04;;;;;;;;;;;;;;;21.83;49.67773;102231.2;;;;-76
2022/07/13 19:24:04;;;;;;;;;;;;;;;21.63;50.19531;102235.4;;;;-75
2022/07/13 19:29:06;;;;;;;;;;;;;;;21.35;50.97559;102238.7;;;;-78
2022/07/13 19:34:06;;;;;;;;;;;;;;;21.42;47.9834;102243.6;;;;-79
2022/07/13 19:39:07;;;;;;;;;;;;;;;21.6;47.15527;102246.6;;;;-79
2022/07/13 19:41:01;;;;;;;7.3;1.3;;;;;;;;;;;;;-77
2022/07/13 19:44:04;;;;;;;;;;;;;;;21.61;46.62891;102249;;;;-77
2022/07/13 19:49:04;;;;;;;;;;;;;;;21.52;46.45898;102248.9;;;;-77
2022/07/13 19:54:06;;;;;;;;;;;;;;;21.42;46.20801;102252;;;;-77
2022/07/13 19:59:07;;;;;;;;;;;;;;;21.27;46.02051;102258.1;;;;-77
2022/07/13 20:04:04;;;;;;;;;;;;;;;21.15;46.11133;102269.6;;;;-77
2022/07/13 20:09:05;;;;;;;;;;;;;;;21.01;46.53223;102272.2;;;;-77
2022/07/13 20:11:03;;;;;;;4.8;1.1;;;;;;;;;;;;;-79
2022/07/13 20:14:05;;;;;;;;;;;;;;;20.9;46.75;102276;;;;-79
2022/07/13 20:19:04;;;;;;;;;;;;;;;20.81;46.80859;102281.7;;;;-78
2022/07/13 20:24:04;;;;;;;;;;;;;;;20.71;46.92383;102282;;;;-78
2022/07/13 20:29:08;;;;;;;;;;;;;;;20.58;46.93262;102286.6;;;;-78
2022/07/13 20:34:04;;;;;;;;;;;;;;;20.47;47.07031;102281.9;;;;-77
2022/07/13 20:39:04;;;;;;;;;;;;;;;20.35;47.03418;102280.4;;;;-79
2022/07/13 20:41:06;;;;;;;8.1;1.1;;;;;;;;;;;;;-79
2022/07/13 20:44:04;;;;;;;;;;;;;;;20.26;47.17383;102278.6;;;;-78
2022/07/13 20:49:04;;;;;;;;;;;;;;;20.16;47.19824;102277.3;;;;-77
2022/07/13 20:54:05;;;;;;;;;;;;;;;20.04;47.28809;102277.1;;;;-78
2022/07/13 20:59:16;;;;;;;;;;;;;;;19.9;47.34082;102272.4;;;;-77
2022/07/13 21:04:04;;;;;;;;;;;;;;;19.78;47.5;102274.7;;;;-77
2022/07/13 21:09:04;;;;;;;;;;;;;;;19.7;47.78711;102285.6;;;;-76
2022/07/13 21:11:09;;;;;;;5.3;1;;;;;;;;;;;;;-77
2022/07/13 21:14:04;;;;;;;;;;;;;;;19.64;47.81641;102287.9;;;;-77
2022/07/13 21:19:05;;;;;;;;;;;;;;;19.56;47.9541;102288.6;;;;-77
2022/07/13 21:24:04;;;;;;;;;;;;;;;19.48;47.79785;102287.4;;;;-78
2022/07/13 21:29:04;;;;;;;;;;;;;;;19.38;47.93457;102292.5;;;;-78
2022/07/13 21:34:04;;;;;;;;;;;;;;;19.29;48.23438;102279.9;;;;-78
2022/07/13 21:39:04;;;;;;;;;;;;;;;19.2;48.45117;102278.5;;;;-77
2022/07/13 21:41:15;;;;;;;3.6;1;;;;;;;;;;;;;-80
2022/07/13 21:44:04;;;;;;;;;;;;;;;19.11;48.41895;102282.9;;;;-79
2022/07/13 21:49:04;;;;;;;;;;;;;;;19.03;48.48926;102282.9;;;;-78
2022/07/13 21:54:04;;;;;;;;;;;;;;;18.93;48.56934;102289.7;;;;-79
2022/07/13 21:59:04;;;;;;;;;;;;;;;18.82;48.54785;102300.8;;;;-78
2022/07/13 22:15:39;;;;;;;;;;;;;;;18.98;48.40527;102286.7;;;;-81
2022/07/13 22:19:42;;;;;;;;;;;;;;;18.54;48.83496;102271.3;;;;-82
2022/07/13 22:24:43;;;;;;;;;;;;;;;18.46;48.92871;102272.5;;;;-82
2022/07/13 22:29:44;;;;;;;;;;;;;;;18.39;49.1709;102273.1;;;;-82
2022/07/13 22:34:46;;;;;;;;;;;;;;;18.35;49.06445;102276.6;;;;-82
2022/07/13 22:39:42;;;;;;;;;;;;;;;18.28;49.16992;102285.3;;;;-81
2022/07/13 22:41:31;;;;;;;4.1;1;;;;;;;;;;;;;-82
2022/07/13 22:44:43;;;;;;;;;;;;;;;18.22;49.29883;102285.9;;;;-80
2022/07/13 22:59:47;;;;;;;;;;;;;;;17.91;49.40137;102264.2;;;;-81
2022/07/13 23:04:44;;;;;;;;;;;;;;;17.91;49.53711;102258.5;;;;-82
2022/07/13 23:11:35;;;;;;;3.1;0.9;;;;;;;;;;;;;-80
2022/07/13 23:18:20;;;;;;;;;;;;;;;17.77;49.60254;102257.3;;;;-82
2022/07/13 23:28:11;;;;;;;;;;;;;;;17.65;49.81543;102264.2;;;;-82
2022/07/13 23:34:01;;;;;;;;;;;;;;;17.9;49.50293;102265.5;;;;-82
2022/07/13 23:38:07;;;;;;;;;;;;;;;17.55;49.94043;102264.4;;;;-84
2022/07/13 23:41:27;;;;;;;2.9;0.9;;;;;;;;;;;;;-83
2022/07/13 23:43:18;;;;;;;;;;;;;;;17.52;50.00391;102264.6;;;;-86
2022/07/13 23:53:26;;;;;;;;;;;;;;;17.38;50;102261.8;;;;-85
2022/07/13 23:58:06;;;;;;;;;;;;;;;17.34;50.16602;102255.2;;;;-86
